Cleveland Hopkins International Airport
KCLE : now visible

Airfield :











YOU CAN JOIN US ON...

 
LOGIN :

Register | Disclaimer

   EN    FR    IT 

 









Legend :    VFR   Marginal VFR   IFR   Intensive IFR   Very Intensive IFR
Visi :
Ceiling :
>= 8 km
>= 3000ft
5 to 8 km
1000 to 3000 ft
1500m to 5 km
500 to 1000 ft
800 to 1500m
200 to 500 ft
< 800m
< 200 ft
Symbols :   Thunderstorms  Fog  Heavy snow  Heavy precipitations  Wind > 20 kt






- Airport Elevation : 791 ft
- IATA code : CLE


KCLE - Cleveland Hopkins International

CURRENT METAR :
  • 170151Z 26012KT 10SM -RA BKN049 OVC060 11/06 A2996 RMK AO2 SLP160 P0002 T01110061 $

EXPIRED METARs :
  • 170051Z 29007KT 7SM -RA BKN033 OVC043 11/08 A2995 RMK AO2 SLP158 P0003 T01060078 $
  • 162351Z 27015KT 10SM -RA FEW036 BKN055 OVC065 12/06 A2993 RMK AO2 PK WND 26026/2338 RAB14 SLP153 P0000 60000 T01170056 10156 20117 53017 $

TAF KCLE
Valid from the 17 at 00:00 until the 18 at 06:00 UTC


162339Z 1700/1806 27012G24KT P6SM VCSH SCT025 OVC035
TEMPO 1700/1704 5SM -SHRA BKN025
FM170800 28010KT P6SM SCT025 OVC035
FM171400 28012G22KT P6SM VCSH SCT025 BKN035
FM171800 28012G22KT P6SM SCT035 BKN060
FM172200 27012KT P6SM VCSH SCT025 OVC035
KZOB FIR / North America



MET'MAP, your aeronautical weather chart ! - Copyright ORBIFLY December 2007 - Disclaimer

ORBIFLY MET'MAP TEAM :

Programming & Development : Alexandra Zaïnal
Concept & original design : Baudouin d'Aumeries
Assistance for programming : Marc-Olivier Méhu
Technical & hardware support : Manuel Goepfert

Contact : metmap@orbifly.com




SOURCES & CREDITS :

   NOAA       Earth
Advisory